Time,TemperatureF,DewpointF,PressureIn,WindDirection,WindDirectionDegrees,WindSpeedMPH,WindSpeedGustMPH,Humidity,HourlyPrecipIn,Conditions,Clouds,dailyrainin,SoftwareType,DateUTC
2013-07-17 00:22:00,76.0,73.0,-100.00,North,5,4.0,5.0,90,-99.99,,,-99.99,,2013-07-17 05:22:00,
2013-07-17 00:43:00,76.0,73.0,-100.00,North,5,1.0,3.0,90,-99.99,,,-99.99,,2013-07-17 05:43:00,
2013-07-17 00:52:00,76.0,73.0,-100.00,North,5,1.0,3.0,90,-99.99,,,-99.99,,2013-07-17 05:52:00,
2013-07-17 01:22:00,75.0,73.0,-100.00,North,5,1.0,4.0,93,-99.99,,,-99.99,,2013-07-17 06:22:00,
2013-07-17 01:43:00,75.0,72.0,-100.00,North,0,1.0,4.0,93,-99.99,,,-99.99,,2013-07-17 06:43:00,
2013-07-17 01:52:00,75.0,72.0,-100.00,North,0,1.0,4.0,93,-99.99,,,-99.99,,2013-07-17 06:52:00,
2013-07-17 02:22:00,74.0,72.0,-100.00,North,5,3.0,5.0,93,-99.99,,,-99.99,,2013-07-17 07:22:00,
2013-07-17 02:42:00,74.0,72.0,-100.00,North,5,2.0,5.0,92,-99.99,,,-99.99,,2013-07-17 07:42:00,
2013-07-17 02:52:00,74.0,72.0,-100.00,North,5,2.0,5.0,92,-99.99,,,-99.99,,2013-07-17 07:52:00,
2013-07-17 03:22:00,73.0,71.0,-100.00,North,10,1.0,4.0,93,-99.99,,,-99.99,,2013-07-17 08:22:00,
2013-07-17 03:43:00,74.0,72.0,-100.00,North,10,4.0,6.0,94,-99.99,,,-99.99,,2013-07-17 08:43:00,
2013-07-17 03:53:00,74.0,72.0,-100.00,North,10,4.0,6.0,94,-99.99,,,-99.99,,2013-07-17 08:53:00,
2013-07-17 04:12:00,74.0,72.0,-100.00,NNE,20,4.0,6.0,93,-99.99,,,-99.99,,2013-07-17 09:12:00,
2013-07-17 04:22:00,74.0,72.0,-100.00,NNE,20,4.0,6.0,93,-99.99,,,-99.99,,2013-07-17 09:22:00,
2013-07-17 04:52:00,74.0,72.0,-100.00,NNE,15,3.0,5.0,93,-99.99,,,-99.99,,2013-07-17 09:52:00,
2013-07-17 05:22:00,73.0,71.0,-100.00,NNE,15,4.0,5.0,93,-99.99,,,-99.99,,2013-07-17 10:22:00,
2013-07-17 05:52:00,74.0,71.0,-100.00,NNE,15,5.0,6.0,92,-99.99,,,-99.99,,2013-07-17 10:52:00,
2013-07-17 06:00:00,74.0,71.0,-100.00,NNE,15,5.0,7.0,93,-99.99,,,-99.99,,2013-07-17 11:00:00,
2013-07-17 06:11:00,74.0,71.0,-100.00,NNE,15,5.0,6.0,92,-99.99,,,-99.99,,2013-07-17 11:11:00,
2013-07-17 06:22:00,73.0,71.0,-100.00,NNE,15,4.0,5.0,93,-99.99,,,-99.99,,2013-07-17 11:22:00,
2013-07-17 06:42:00,74.0,71.0,-100.00,NNE,15,5.0,7.0,93,-99.99,,,-99.99,,2013-07-17 11:42:00,
2013-07-17 06:52:00,74.0,71.0,-100.00,NNE,15,5.0,7.0,93,-99.99,,,-99.99,,2013-07-17 11:52:00,
2013-07-17 07:12:00,76.0,72.0,-100.00,North,10,4.0,5.0,89,-99.99,,,-99.99,,2013-07-17 12:12:00,
2013-07-17 07:22:00,76.0,72.0,-100.00,North,10,4.0,5.0,89,-99.99,,,-99.99,,2013-07-17 12:22:00,
2013-07-17 07:53:00,78.0,73.0,-100.00,NNE,15,2.0,5.0,85,-99.99,,,-99.99,,2013-07-17 12:53:00,
2013-07-17 08:22:00,81.0,73.0,-100.00,NNE,15,3.0,6.0,78,-99.99,,,-99.99,,2013-07-17 13:22:00,
2013-07-17 08:53:00,82.0,73.0,-100.00,NNE,25,4.0,6.0,74,-99.99,,,-99.99,,2013-07-17 13:53:00,
2013-07-17 09:11:00,84.0,73.0,-100.00,NNE,20,4.0,6.0,70,-99.99,,,-99.99,,2013-07-17 14:11:00,
2013-07-17 09:22:00,84.0,73.0,-100.00,NNE,20,4.0,6.0,70,-99.99,,,-99.99,,2013-07-17 14:22:00,
2013-07-17 09:32:00,85.0,73.0,-100.00,NNE,15,5.0,7.0,68,-99.99,,,-99.99,,2013-07-17 14:32:00,
2013-07-17 09:43:00,85.0,73.0,-100.00,NNE,20,3.0,6.0,67,-99.99,,,-99.99,,2013-07-17 14:43:00,
2013-07-17 09:52:00,85.0,73.0,-100.00,NNE,20,3.0,6.0,67,-99.99,,,-99.99,,2013-07-17 14:52:00,
2013-07-17 10:02:00,86.0,74.0,-100.00,NNE,20,3.0,6.0,67,-99.99,,,-99.99,,2013-07-17 15:02:00,
2013-07-17 10:12:00,87.0,74.0,-100.00,NNE,20,5.0,7.0,65,-99.99,,,-99.99,,2013-07-17 15:12:00,
2013-07-17 10:22:00,87.0,74.0,-100.00,NNE,20,5.0,7.0,65,-99.99,,,-99.99,,2013-07-17 15:22:00,
2013-07-17 10:30:00,88.0,73.0,-100.00,NNE,20,2.0,8.0,63,-99.99,,,-99.99,,2013-07-17 15:30:00,
2013-07-17 10:32:00,88.0,72.0,-100.00,NNE,25,6.0,8.0,61,-99.99,,,-99.99,,2013-07-17 15:32:00,
2013-07-17 10:52:00,88.0,72.0,-100.00,NNE,30,4.0,10.0,60,-99.99,,,-99.99,,2013-07-17 15:52:00,
2013-07-17 11:02:00,88.0,73.0,-100.00,NNE,20,2.0,8.0,63,-99.99,,,-99.99,,2013-07-17 16:02:00,
2013-07-17 11:11:00,88.0,73.0,-100.00,NNE,20,2.0,8.0,63,-99.99,,,-99.99,,2013-07-17 16:11:00,
2013-07-17 11:22:00,88.0,73.0,-100.00,NNE,20,2.0,8.0,63,-99.99,,,-99.99,,2013-07-17 16:22:00,
2013-07-17 11:43:00,90.0,73.0,-100.00,NNE,25,4.0,8.0,59,-99.99,,,-99.99,,2013-07-17 16:43:00,
2013-07-17 11:52:00,90.0,73.0,-100.00,NNE,25,4.0,8.0,59,-99.99,,,-99.99,,2013-07-17 16:52:00,
2013-07-17 12:22:00,91.0,72.0,-100.00,NNE,25,4.0,9.0,55,-99.99,,,-99.99,,2013-07-17 17:22:00,
2013-07-17 12:43:00,90.0,72.0,-100.00,NNE,20,4.0,7.0,55,-99.99,,,-99.99,,2013-07-17 17:43:00,
2013-07-17 12:52:00,90.0,72.0,-100.00,NNE,20,4.0,7.0,55,-99.99,,,-99.99,,2013-07-17 17:52:00,
2013-07-17 13:22:00,91.0,71.0,-100.00,North,10,6.0,9.0,53,-99.99,,,-99.99,,2013-07-17 18:22:00,
2013-07-17 13:43:00,92.0,71.0,-100.00,NNE,15,6.0,10.0,50,-99.99,,,-99.99,,2013-07-17 18:43:00,
2013-07-17 13:52:00,92.0,71.0,-100.00,NNE,15,6.0,10.0,50,-99.99,,,-99.99,,2013-07-17 18:52:00,
2013-07-17 14:22:00,92.0,72.0,-100.00,North,10,6.0,10.0,51,-99.99,,,-99.99,,2013-07-17 19:22:00,
2013-07-17 14:43:00,92.0,70.0,-100.00,North,10,5.0,11.0,48,-99.99,,,-99.99,,2013-07-17 19:43:00,
2013-07-17 14:53:00,92.0,70.0,-100.00,North,10,5.0,11.0,48,-99.99,,,-99.99,,2013-07-17 19:53:00,
2013-07-17 15:11:00,92.0,71.0,-100.00,North,10,6.0,10.0,50,-99.99,,,-99.99,,2013-07-17 20:11:00,
2013-07-17 15:22:00,92.0,71.0,-100.00,North,10,6.0,10.0,50,-99.99,,,-99.99,,2013-07-17 20:22:00,
2013-07-17 15:43:00,92.0,72.0,-100.00,North,5,4.0,11.0,52,-99.99,,,-99.99,,2013-07-17 20:43:00,
2013-07-17 15:53:00,92.0,72.0,-100.00,North,5,4.0,11.0,52,-99.99,,,-99.99,,2013-07-17 20:53:00,
2013-07-17 16:12:00,92.0,71.0,-100.00,NNE,15,7.0,11.0,50,-99.99,,,-99.99,,2013-07-17 21:12:00,
2013-07-17 16:22:00,92.0,71.0,-100.00,NNE,15,7.0,11.0,50,-99.99,,,-99.99,,2013-07-17 21:22:00,
2013-07-17 16:53:00,91.0,72.0,-100.00,North,0,5.0,11.0,54,-99.99,,,-99.99,,2013-07-17 21:53:00,
2013-07-17 17:22:00,92.0,72.0,-100.00,North,5,7.0,13.0,53,-99.99,,,-99.99,,2013-07-17 22:22:00,
2013-07-17 17:43:00,92.0,73.0,-100.00,North,0,6.0,9.0,54,-99.99,,,-99.99,,2013-07-17 22:43:00,
2013-07-17 17:53:00,92.0,73.0,-100.00,North,0,6.0,9.0,54,-99.99,,,-99.99,,2013-07-17 22:53:00,
2013-07-17 18:22:00,92.0,73.0,-100.00,North,10,5.0,11.0,54,-99.99,,,-99.99,,2013-07-17 23:22:00,
2013-07-17 18:43:00,91.0,73.0,-100.00,North,0,1.0,7.0,55,-99.99,,,-99.99,,2013-07-17 23:43:00,
2013-07-17 18:52:00,91.0,73.0,-100.00,North,0,1.0,7.0,55,-99.99,,,-99.99,,2013-07-17 23:52:00,
2013-07-17 19:01:00,90.0,74.0,-100.00,North,0,4.0,8.0,58,-99.99,,,-99.99,,2013-07-18 00:01:00,
2013-07-17 19:11:00,90.0,74.0,-100.00,North,0,4.0,9.0,60,-99.99,,,-99.99,,2013-07-18 00:11:00,
2013-07-17 19:22:00,90.0,74.0,-100.00,North,0,4.0,9.0,60,-99.99,,,-99.99,,2013-07-18 00:22:00,
2013-07-17 19:43:00,88.0,74.0,-100.00,North,0,3.0,7.0,62,-99.99,,,-99.99,,2013-07-18 00:43:00,
2013-07-17 19:52:00,88.0,74.0,-100.00,North,0,3.0,7.0,62,-99.99,,,-99.99,,2013-07-18 00:52:00,
2013-07-17 20:01:00,87.0,75.0,-100.00,North,0,1.0,4.0,66,-99.99,,,-99.99,,2013-07-18 01:01:00,
2013-07-17 20:22:00,87.0,74.0,-100.00,North,0,1.0,5.0,67,-99.99,,,-99.99,,2013-07-18 01:22:00,
2013-07-17 20:32:00,86.0,75.0,-100.00,North,0,1.0,4.0,71,-99.99,,,-99.99,,2013-07-18 01:32:00,
2013-07-17 20:53:00,85.0,75.0,-100.00,North,0,1.0,2.0,74,-99.99,,,-99.99,,2013-07-18 01:53:00,
2013-07-17 21:11:00,81.0,76.0,-100.00,North,0,0.0,2.0,84,-99.99,,,-99.99,,2013-07-18 02:11:00,
2013-07-17 21:22:00,81.0,76.0,-100.00,North,0,0.0,2.0,84,-99.99,,,-99.99,,2013-07-18 02:22:00,
2013-07-17 21:43:00,80.0,76.0,-100.00,North,0,1.0,2.0,87,-99.99,,,-99.99,,2013-07-18 02:43:00,
2013-07-17 21:52:00,80.0,76.0,-100.00,North,0,1.0,2.0,87,-99.99,,,-99.99,,2013-07-18 02:52:00,
2013-07-17 22:11:00,78.0,75.0,-100.00,North,0,1.0,2.0,90,-99.99,,,-99.99,,2013-07-18 03:11:00,
2013-07-17 22:22:00,78.0,75.0,-100.00,North,0,1.0,2.0,90,-99.99,,,-99.99,,2013-07-18 03:22:00,
2013-07-17 22:52:00,78.0,75.0,-100.00,North,5,2.0,5.0,92,-99.99,,,-99.99,,2013-07-18 03:52:00,
2013-07-17 23:22:00,77.0,75.0,-100.00,North,0,1.0,2.0,92,-99.99,,,-99.99,,2013-07-18 04:22:00,
2013-07-17 23:43:00,77.0,75.0,-100.00,North,5,1.0,4.0,94,-99.99,,,-99.99,,2013-07-18 04:43:00,
2013-07-17 23:52:00,77.0,75.0,-100.00,North,5,1.0,4.0,94,-99.99,,,-99.99,,2013-07-18 04:52:00,